Time;durP1;ratioP1;P1;durP2;ratioP2;P2;SDS_P1;SDS_P2;PMS_P1;PMS_P2;Temp;Humidity;BMP_temperature;BMP_pressure;BME280_temperature;BME280_humidity;BME280_pressure;Samples;Min_cycle;Max_cycle;Signal;HPM_P1;HPM_P2
2023/02/22 00:02:23;;;;;;;8.15;4.10;;;;;;;;;;6235034;23;20450;-63
2023/02/22 00:04:57;;;;;;;12.38;4.00;;;;;;;;;;6235054;23;20035;-63
2023/02/22 00:07:24;;;;;;;;;;;;;;;;;;6236129;23;20020;-63
2023/02/22 00:09:59;;;;;;;7.97;4.07;;;;;;;;;;6235867;23;20349;-62
2023/02/22 00:12:28;;;;;;;20.38;6.88;;;;;;;;;;6232645;23;20091;-63
2023/02/22 00:15:02;;;;;;;12.95;5.90;;;;;;;;;;6234311;23;20072;-63
2023/02/22 00:17:29;;;;;;;11.43;5.40;;;;;;;;;;6235330;23;20514;-63
2023/02/22 00:20:06;;;;;;;10.85;5.38;;;;;;;;;;6237337;23;20028;-63
2023/02/22 00:22:34;;;;;;;11.07;5.25;;;;;;;;;;6235253;23;20064;-63
2023/02/22 00:25:01;;;;;;;11.15;5.80;;;;;;;;;;6237079;23;20020;-63
2023/02/22 00:27:36;;;;;;;9.55;5.00;;;;;;;;;;6235195;23;20526;-63
2023/02/22 00:30:04;;;;;;;10.07;5.22;;;;;;;;;;6235466;23;20060;-62
2023/02/22 00:32:32;;;;;;;9.75;5.22;;;;;;;;;;6236376;23;20038;-65
2023/02/22 00:35:07;;;;;;;8.52;4.95;;;;;;;;;;6236933;23;20094;-63
2023/02/22 00:37:34;;;;;;;5.72;3.70;;;;;;;;;;6235977;23;20099;-48
2023/02/22 00:40:12;;;;;;;9.02;4.93;;;;;;;;;;6236411;23;20533;-52
2023/02/22 00:42:39;;;;;;;8.45;4.45;;;;;;;;;;6235354;23;20371;-50
2023/02/22 00:45:06;;;;;;;9.95;4.43;;;;;;;;;;6234952;23;20070;-53
2023/02/22 00:47:40;;;;;;;7.57;4.30;;;;;;;;;;6236001;23;20091;-50
2023/02/22 00:50:08;;;;;;;6.60;3.83;;;;;;;;;;6235804;23;20035;-51
2023/02/22 00:52:42;;;;;;;10.45;4.80;;;;;;;;;;6233366;23;20107;-52
2023/02/22 00:55:11;;;;;;;7.45;4.00;;;;;;;;;;6234722;23;20020;-61
2023/02/22 00:57:39;;;;;;;6.47;3.85;;;;;;;;;;6232777;23;20020;-61
2023/02/22 01:00:26;;;;;;;8.55;4.43;;;;;;;;;;6232339;23;20027;-61
2023/02/22 01:02:54;;;;;;;6.70;4.00;;;;;;;;;;6232861;23;20063;-60
2023/02/22 01:05:29;;;;;;;7.10;3.92;;;;;;;;;;6235603;23;20024;-63
2023/02/22 01:07:57;;;;;;;5.93;3.88;;;;;;;;;;6234186;23;20024;-47
2023/02/22 01:10:32;;;;;;;8.25;4.38;;;;;;;;;;6232474;23;20040;-49
2023/02/22 01:13:00;;;;;;;9.85;4.65;;;;;;;;;;6234695;23;20050;-48
2023/02/22 01:15:35;;;;;;;7.65;3.85;;;;;;;;;;6233580;23;20104;-52
2023/02/22 01:18:03;;;;;;;7.03;4.03;;;;;;;;;;6234419;23;20024;-48
2023/02/22 01:20:31;;;;;;;8.05;4.55;;;;;;;;;;6233915;23;20020;-47
2023/02/22 01:23:06;;;;;;;7.15;4.22;;;;;;;;;;6234173;23;20063;-63
2023/02/22 01:25:34;;;;;;;6.75;3.95;;;;;;;;;;6233072;23;20455;-62
2023/02/22 01:28:08;;;;;;;6.47;4.10;;;;;;;;;;6234835;23;20038;-63
2023/02/22 01:30:35;;;;;;;;;;;;;;;;;;6233733;23;20395;-62
2023/02/22 01:33:11;;;;;;;8.57;3.90;;;;;;;;;;6234668;23;20243;-50
2023/02/22 01:35:40;;;;;;;7.97;3.55;;;;;;;;;;6226586;23;20519;-63
2023/02/22 01:38:14;;;;;;;6.05;3.67;;;;;;;;;;6220064;23;20122;-49
2023/02/22 01:40:42;;;;;;;8.93;4.05;;;;;;;;;;6219229;23;20020;-52
2023/02/22 01:43:18;;;;;;;7.43;3.53;;;;;;;;;;6217613;23;20204;-50
2023/02/22 01:46:02;;;;;;;6.95;3.95;;;;;;;;;;6219725;23;20127;-52
2023/02/22 01:48:35;;;;;;;5.60;3.47;;;;;;;;;;6223696;23;20020;-54
2023/02/22 01:51:12;;;;;;;4.60;3.10;;;;;;;;;;6228175;23;20513;-50
2023/02/22 01:53:43;;;;;;;7.70;3.85;;;;;;;;;;6233638;23;20023;-50
2023/02/22 01:56:18;;;;;;;4.18;2.65;;;;;;;;;;6233241;23;20051;-59
2023/02/22 01:58:48;;;;;;;7.05;3.67;;;;;;;;;;6233761;23;20168;-60
2023/02/22 02:01:17;;;;;;;7.00;3.03;;;;;;;;;;6230649;23;20491;-61
2023/02/22 02:03:52;;;;;;;12.05;3.60;;;;;;;;;;6236559;23;20576;-60
2023/02/22 02:06:19;;;;;;;5.88;3.22;;;;;;;;;;6233610;23;20101;-59
2023/02/22 02:09:04;;;;;;;5.68;2.92;;;;;;;;;;6237819;23;20027;-60
2023/02/22 02:11:31;;;;;;;6.45;3.25;;;;;;;;;;6238275;23;20100;-50
2023/02/22 02:14:06;;;;;;;5.72;3.42;;;;;;;;;;6237275;23;20102;-50
2023/02/22 02:16:55;;;;;;;6.55;3.20;;;;;;;;;;6236365;23;20501;-50
2023/02/22 02:19:46;;;;;;;5.47;3.20;;;;;;;;;;6222577;23;20746;-53
2023/02/22 02:22:20;;;;;;;6.00;3.00;;;;;;;;;;6236599;23;20111;-55
2023/02/22 02:25:03;;;;;;;8.57;3.30;;;;;;;;;;6235965;23;20107;-54
2023/02/22 02:27:49;;;;;;;5.45;3.10;;;;;;;;;;6235376;23;20089;-54
2023/02/22 02:30:29;;;;;;;4.45;2.33;;;;;;;;;;6235447;23;20032;-55
2023/02/22 02:32:59;;;;;;;5.20;2.80;;;;;;;;;;6235698;23;20028;-57
2023/02/22 02:35:39;;;;;;;5.07;2.45;;;;;;;;;;6236030;23;20499;-51
2023/02/22 02:38:18;;;;;;;4.05;2.60;;;;;;;;;;6234999;23;20458;-74
2023/02/22 02:41:02;;;;;;;5.60;2.78;;;;;;;;;;6233867;23;20024;-74
2023/02/22 02:43:52;;;;;;;4.88;2.83;;;;;;;;;;6236703;23;20570;-74
2023/02/22 02:46:30;;;;;;;4.10;2.70;;;;;;;;;;6226702;23;20028;-74
2023/02/22 02:49:00;;;;;;;7.53;3.15;;;;;;;;;;6235773;23;20386;-51
2023/02/22 02:51:38;;;;;;;4.82;2.80;;;;;;;;;;6233599;23;20052;-51
2023/02/22 02:54:06;;;;;;;3.60;2.67;;;;;;;;;;6235800;23;20022;-51
2023/02/22 02:56:41;;;;;;;5.30;2.92;;;;;;;;;;6235190;23;20103;-51
2023/02/22 02:59:41;;;;;;;5.20;2.95;;;;;;;;;;6233306;23;20024;-50
2023/02/22 03:02:38;;;;;;;5.28;2.58;;;;;;;;;;6233301;23;20020;-54
2023/02/22 03:05:24;;;;;;;4.05;2.60;;;;;;;;;;6235322;23;20030;-53
2023/02/22 03:08:06;;;;;;;4.68;3.08;;;;;;;;;;6235543;23;20107;-64
2023/02/22 03:10:42;;;;;;;6.65;3.13;;;;;;;;;;6233742;23;20059;-63
2023/02/22 03:13:35;;;;;;;5.20;3.20;;;;;;;;;;6234656;23;20070;-63
2023/02/22 03:16:31;;;;;;;3.55;2.70;;;;;;;;;;6234032;23;20030;-64
2023/02/22 03:19:05;;;;;;;5.20;3.47;;;;;;;;;;6158436;23;20085;-49
2023/02/22 03:21:51;;;;;;;5.63;3.63;;;;;;;;;;6233784;23;20090;-49
2023/02/22 03:24:44;;;;;;;4.80;2.88;;;;;;;;;;6235237;23;20024;-48
2023/02/22 03:27:23;;;;;;;6.25;3.15;;;;;;;;;;6233761;23;20071;-50
2023/02/22 03:29:52;;;;;;;4.60;2.88;;;;;;;;;;6234929;23;20569;-51
2023/02/22 03:32:28;;;;;;;5.20;3.00;;;;;;;;;;6233746;23;20036;-48
2023/02/22 03:34:58;;;;;;;4.43;2.90;;;;;;;;;;6235410;23;20110;-55
2023/02/22 03:37:34;;;;;;;5.32;3.38;;;;;;;;;;6235390;23;20020;-57
2023/02/22 03:40:15;;;;;;;5.28;3.00;;;;;;;;;;6235103;23;20022;-56
2023/02/22 03:42:51;;;;;;;5.63;3.00;;;;;;;;;;6234283;23;20070;-54
2023/02/22 03:45:20;;;;;;;3.92;2.50;;;;;;;;;;6235191;23;20062;-63
2023/02/22 03:47:49;;;;;;;4.18;3.00;;;;;;;;;;6236394;23;20016;-57
2023/02/22 03:50:28;;;;;;;4.55;2.80;;;;;;;;;;6232729;23;20462;-61
2023/02/22 03:52:57;;;;;;;4.43;2.70;;;;;;;;;;6235850;23;20075;-60
2023/02/22 03:55:31;;;;;;;4.10;2.33;;;;;;;;;;6233289;23;20131;-61
2023/02/22 03:58:00;;;;;;;4.72;3.13;;;;;;;;;;6234691;23;20107;-60
2023/02/22 04:00:43;;;;;;;4.22;2.40;;;;;;;;;;6230982;23;20027;-61
2023/02/22 04:03:13;;;;;;;2.88;2.17;;;;;;;;;;6236067;23;20035;-66
2023/02/22 04:05:47;;;;;;;3.67;2.60;;;;;;;;;;6232572;23;20078;-76
2023/02/22 04:08:14;;;;;;;3.88;2.25;;;;;;;;;;6233887;23;20016;-77
2023/02/22 04:10:42;;;;;;;5.68;2.70;;;;;;;;;;6234743;23;20028;-76
2023/02/22 04:13:16;;;;;;;3.78;2.50;;;;;;;;;;6235862;23;20016;-76
2023/02/22 04:15:43;;;;;;;7.47;2.75;;;;;;;;;;6233656;23;20024;-51
2023/02/22 04:18:17;;;;;;;3.30;2.25;;;;;;;;;;6234707;23;20027;-55
2023/02/22 04:20:45;;;;;;;3.90;2.33;;;;;;;;;;6234976;23;20027;-52
2023/02/22 04:23:12;;;;;;;;;;;;;;;;;;6235205;23;20103;-56
2023/02/22 04:25:46;;;;;;;2.42;1.80;;;;;;;;;;6234322;23;19919;-54
2023/02/22 04:28:13;;;;;;;3.75;2.40;;;;;;;;;;6235459;23;20021;-54
2023/02/22 04:30:47;;;;;;;3.55;2.40;;;;;;;;;;6233468;23;20458;-53
2023/02/22 04:33:15;;;;;;;3.78;2.83;;;;;;;;;;6234922;23;20026;-63
2023/02/22 04:35:42;;;;;;;4.05;2.50;;;;;;;;;;6232126;23;20032;-62
2023/02/22 04:38:16;;;;;;;3.08;2.28;;;;;;;;;;6235087;23;20024;-62
2023/02/22 04:40:43;;;;;;;4.28;2.40;;;;;;;;;;6233109;23;20020;-63
2023/02/22 04:43:17;;;;;;;3.50;2.38;;;;;;;;;;6234167;23;20554;-53
2023/02/22 04:45:44;;;;;;;2.95;2.08;;;;;;;;;;6232895;23;20379;-56
2023/02/22 04:48:11;;;;;;;2.83;1.98;;;;;;;;;;6235285;23;20538;-57
2023/02/22 04:50:46;;;;;;;2.80;1.52;;;;;;;;;;6235675;23;20020;-53
2023/02/22 04:53:13;;;;;;;2.10;1.75;;;;;;;;;;6234234;23;20047;-54
2023/02/22 04:55:47;;;;;;;6.07;2.13;;;;;;;;;;6231540;23;20131;-56
2023/02/22 04:58:14;;;;;;;1.98;1.42;;;;;;;;;;6235111;23;20026;-54
2023/02/22 05:00:41;;;;;;;4.18;2.17;;;;;;;;;;6232490;23;20035;-64
2023/02/22 05:03:15;;;;;;;2.72;2.13;;;;;;;;;;6234800;23;20051;-64
2023/02/22 05:05:42;;;;;;;4.20;1.65;;;;;;;;;;6234859;23;20099;-65
2023/02/22 05:08:16;;;;;;;2.63;2.00;;;;;;;;;;6235960;23;20558;-64
2023/02/22 05:10:43;;;;;;;;;;;;;;;;;;6235769;23;20091;-62
2023/02/22 05:13:11;;;;;;;3.13;1.40;;;;;;;;;;6234692;23;19922;-63
2023/02/22 05:15:44;;;;;;;4.25;2.03;;;;;;;;;;6233027;23;20116;-75
2023/02/22 05:18:11;;;;;;;2.45;1.73;;;;;;;;;;6234661;23;20110;-75
2023/02/22 05:20:45;;;;;;;5.32;1.88;;;;;;;;;;6233794;23;20024;-75
2023/02/22 05:23:12;;;;;;;1.50;1.20;;;;;;;;;;6233974;23;20020;-74
2023/02/22 05:25:39;;;;;;;3.95;2.33;;;;;;;;;;6232219;23;20024;-75
2023/02/22 05:28:14;;;;;;;3.15;2.63;;;;;;;;;;6233157;23;20020;-71
2023/02/22 05:30:42;;;;;;;1.92;1.42;;;;;;;;;;6234258;23;20507;-63
2023/02/22 05:33:10;;;;;;;3.55;2.03;;;;;;;;;;6235351;23;20026;-62
2023/02/22 05:35:45;;;;;;;2.38;1.58;;;;;;;;;;6234398;23;20448;-62
2023/02/22 05:38:13;;;;;;;2.95;1.73;;;;;;;;;;6234227;23;20099;-62
2023/02/22 05:40:47;;;;;;;3.72;2.15;;;;;;;;;;6235723;23;20108;-62
2023/02/22 05:43:14;;;;;;;4.15;2.15;;;;;;;;;;6234379;23;20082;-48
2023/02/22 05:45:41;;;;;;;4.32;2.05;;;;;;;;;;6234652;23;20103;-50
2023/02/22 05:48:15;;;;;;;3.72;2.08;;;;;;;;;;6236117;23;20020;-49
2023/02/22 05:50:42;;;;;;;3.20;1.95;;;;;;;;;;6214798;23;20028;-47
2023/02/22 05:53:16;;;;;;;1.92;1.58;;;;;;;;;;6235106;23;20017;-52
2023/02/22 05:55:43;;;;;;;3.58;1.80;;;;;;;;;;6236210;23;20028;-49
2023/02/22 05:58:12;;;;;;;4.85;1.88;;;;;;;;;;6235607;23;20487;-75
2023/02/22 06:00:53;;;;;;;4.35;2.40;;;;;;;;;;6233226;23;20024;-76
2023/02/22 06:03:27;;;;;;;2.70;1.85;;;;;;;;;;6236285;23;20017;-76
2023/02/22 06:06:00;;;;;;;3.75;2.22;;;;;;;;;;6235100;23;20032;-76
2023/02/22 06:08:27;;;;;;;4.22;2.30;;;;;;;;;;6234933;23;20099;-61
2023/02/22 06:10:54;;;;;;;2.83;1.52;;;;;;;;;;6231766;23;20349;-56
2023/02/22 06:13:28;;;;;;;3.03;2.00;;;;;;;;;;6235404;23;20020;-54
2023/02/22 06:15:55;;;;;;;2.53;1.63;;;;;;;;;;6235700;23;20034;-57
2023/02/22 06:18:30;;;;;;;3.08;1.63;;;;;;;;;;6236324;23;20387;-58
2023/02/22 06:20:57;;;;;;;4.25;2.65;;;;;;;;;;6235887;23;20030;-56
2023/02/22 06:23:25;;;;;;;2.83;2.30;;;;;;;;;;6237038;23;20024;-54
2023/02/22 06:25:59;;;;;;;3.13;2.20;;;;;;;;;;6236113;23;20024;-65
2023/02/22 06:28:26;;;;;;;3.63;2.13;;;;;;;;;;6235959;23;20091;-65
2023/02/22 06:31:00;;;;;;;3.55;2.22;;;;;;;;;;6236695;23;20020;-65
2023/02/22 06:33:27;;;;;;;1.75;1.65;;;;;;;;;;6235916;23;20024;-64
2023/02/22 06:35:54;;;;;;;3.65;2.60;;;;;;;;;;6236673;23;20016;-64
2023/02/22 06:38:28;;;;;;;4.05;2.35;;;;;;;;;;6236540;23;20374;-58
2023/02/22 06:40:55;;;;;;;3.63;2.40;;;;;;;;;;6236093;23;20095;-54
2023/02/22 06:43:23;;;;;;;3.38;2.30;;;;;;;;;;6236943;23;20341;-49
2023/02/22 06:45:57;;;;;;;2.55;1.75;;;;;;;;;;6236104;23;20024;-49
2023/02/22 06:48:24;;;;;;;3.35;1.83;;;;;;;;;;6236105;23;20020;-53
2023/02/22 06:50:58;;;;;;;3.10;1.88;;;;;;;;;;6235812;23;20063;-47
2023/02/22 06:53:25;;;;;;;3.42;2.22;;;;;;;;;;6236666;23;20020;-49
2023/02/22 06:55:54;;;;;;;3.08;2.35;;;;;;;;;;6236333;23;20146;-62
2023/02/22 06:58:28;;;;;;;3.65;2.42;;;;;;;;;;6223960;23;20491;-63
2023/02/22 07:01:02;;;;;;;4.50;2.38;;;;;;;;;;6235248;23;20020;-62
2023/02/22 07:03:36;;;;;;;5.43;2.33;;;;;;;;;;6235775;23;20032;-62
2023/02/22 07:06:04;;;;;;;3.58;2.30;;;;;;;;;;6235482;23;20487;-65
2023/02/22 07:08:31;;;;;;;;;;;;;;;;;;6236785;23;20095;-75
2023/02/22 07:11:05;;;;;;;2.95;1.92;;;;;;;;;;6236758;23;19915;-74
2023/02/22 07:13:32;;;;;;;3.47;2.40;;;;;;;;;;6235924;23;20487;-74
2023/02/22 07:16:06;;;;;;;5.28;2.30;;;;;;;;;;6235603;23;20133;-75
2023/02/22 07:18:33;;;;;;;2.92;2.20;;;;;;;;;;6235656;23;20441;-74
2023/02/22 07:21:01;;;;;;;4.05;2.80;;;;;;;;;;6236011;23;20023;-74
2023/02/22 07:23:34;;;;;;;5.43;2.63;;;;;;;;;;6235978;23;20063;-60
2023/02/22 07:26:02;;;;;;;3.75;2.55;;;;;;;;;;6234287;23;20026;-62
2023/02/22 07:28:36;;;;;;;3.97;2.13;;;;;;;;;;6236358;23;20103;-60
2023/02/22 07:31:03;;;;;;;3.50;2.70;;;;;;;;;;6235641;23;20542;-62
2023/02/22 07:33:30;;;;;;;6.13;2.70;;;;;;;;;;6236692;23;20056;-61
2023/02/22 07:36:04;;;;;;;3.33;2.10;;;;;;;;;;6236596;23;20027;-54
2023/02/22 07:38:32;;;;;;;3.88;2.53;;;;;;;;;;6235596;23;20082;-54
2023/02/22 07:41:06;;;;;;;2.92;2.17;;;;;;;;;;6236582;23;20024;-58
2023/02/22 07:43:33;;;;;;;;;;;;;;;;;;6235421;23;20291;-57
2023/02/22 07:46:07;;;;;;;2.88;2.00;;;;;;;;;;6235070;23;20087;-55
2023/02/22 07:48:34;;;;;;;3.75;2.20;;;;;;;;;;6233432;23;20020;-58
2023/02/22 07:51:09;;;;;;;3.70;2.30;;;;;;;;;;6236793;23;20026;-62
2023/02/22 07:53:36;;;;;;;5.85;2.78;;;;;;;;;;6235292;23;20078;-63
2023/02/22 07:56:04;;;;;;;3.30;2.20;;;;;;;;;;6235300;23;20095;-63
2023/02/22 07:58:38;;;;;;;3.70;2.30;;;;;;;;;;6234339;23;20023;-63
2023/02/22 08:01:13;;;;;;;3.10;1.92;;;;;;;;;;6233961;23;20016;-63
2023/02/22 08:03:55;;;;;;;3.35;2.30;;;;;;;;;;6235661;23;20063;-55
2023/02/22 08:06:24;;;;;;;4.15;2.08;;;;;;;;;;6233923;23;20571;-61
2023/02/22 08:08:58;;;;;;;3.03;2.10;;;;;;;;;;6236259;23;20095;-62
2023/02/22 08:11:26;;;;;;;2.90;2.33;;;;;;;;;;6236457;23;20024;-62
2023/02/22 08:13:53;;;;;;;3.25;2.03;;;;;;;;;;6234926;23;20028;-61
2023/02/22 08:16:27;;;;;;;2.50;1.55;;;;;;;;;;6234940;23;20028;-62
2023/02/22 08:18:54;;;;;;;3.00;2.03;;;;;;;;;;6235020;23;20059;-61
2023/02/22 08:21:29;;;;;;;3.47;2.22;;;;;;;;;;6235855;23;20055;-62
2023/02/22 08:23:56;;;;;;;4.18;2.47;;;;;;;;;;6233872;23;20055;-63
2023/02/22 08:26:24;;;;;;;3.38;2.17;;;;;;;;;;6235947;23;20024;-62
2023/02/22 08:28:58;;;;;;;4.93;2.30;;;;;;;;;;6235545;23;20043;-62
2023/02/22 08:31:25;;;;;;;3.15;1.98;;;;;;;;;;6234908;23;20195;-52
2023/02/22 08:33:59;;;;;;;2.60;1.90;;;;;;;;;;6236081;23;20020;-53
2023/02/22 08:36:28;;;;;;;;;;;;;;;;;;6236407;23;20070;-49
2023/02/22 08:38:55;;;;;;;3.35;2.13;;;;;;;;;;6233822;23;19915;-48
2023/02/22 08:41:29;;;;;;;3.92;2.00;;;;;;;;;;6236893;23;20074;-49
2023/02/22 08:44:00;;;;;;;4.85;2.08;;;;;;;;;;6235422;23;20024;-50
2023/02/22 08:46:33;;;;;;;2.22;1.75;;;;;;;;;;6235134;23;20387;-52
2023/02/22 08:49:01;;;;;;;3.83;2.10;;;;;;;;;;6235347;23;20099;-60
2023/02/22 08:51:29;;;;;;;3.03;2.00;;;;;;;;;;6235006;23;20511;-56
2023/02/22 08:54:02;;;;;;;2.75;2.00;;;;;;;;;;6235333;23;20107;-53
2023/02/22 08:56:30;;;;;;;2.75;1.73;;;;;;;;;;6235327;23;20020;-59
2023/02/22 08:59:03;;;;;;;2.85;2.03;;;;;;;;;;6235329;23;20422;-68
2023/02/22 09:01:37;;;;;;;3.78;2.03;;;;;;;;;;6232951;23;20024;-54
2023/02/22 09:04:10;;;;;;;3.25;2.00;;;;;;;;;;6234324;23;20024;-52
2023/02/22 09:06:40;;;;;;;2.88;1.65;;;;;;;;;;6235768;23;20051;-52
2023/02/22 09:09:07;;;;;;;3.78;1.92;;;;;;;;;;6235661;23;20286;-51
2023/02/22 09:11:41;;;;;;;4.72;2.22;;;;;;;;;;6234586;23;20096;-57
2023/02/22 09:14:08;;;;;;;2.13;1.58;;;;;;;;;;6236231;23;20028;-52
2023/02/22 09:16:43;;;;;;;2.97;2.00;;;;;;;;;;6237149;23;20557;-75
2023/02/22 09:19:10;;;;;;;3.17;1.90;;;;;;;;;;6237658;23;20020;-74
2023/02/22 09:21:39;;;;;;;6.45;2.17;;;;;;;;;;6236894;23;20095;-74
2023/02/22 09:24:12;;;;;;;3.72;2.30;;;;;;;;;;6237325;23;20394;-74
2023/02/22 09:26:39;;;;;;;4.47;2.10;;;;;;;;;;6236665;23;20020;-55
2023/02/22 09:29:13;;;;;;;2.55;1.90;;;;;;;;;;6236220;23;20071;-50
2023/02/22 09:31:41;;;;;;;2.72;1.85;;;;;;;;;;6237287;23;20080;-64
2023/02/22 09:34:14;;;;;;;3.10;2.05;;;;;;;;;;6236341;23;20125;-65
2023/02/22 09:36:49;;;;;;;4.05;2.03;;;;;;;;;;6237691;23;20027;-65
2023/02/22 09:39:17;;;;;;;2.28;1.27;;;;;;;;;;6236965;23;20024;-64
2023/02/22 09:41:51;;;;;;;2.60;2.00;;;;;;;;;;6236827;23;20415;-64
2023/02/22 09:44:28;;;;;;;3.05;2.10;;;;;;;;;;6236758;23;20094;-64
2023/02/22 09:47:09;;;;;;;2.22;1.60;;;;;;;;;;6236806;23;20059;-62
2023/02/22 09:49:37;;;;;;;2.72;2.00;;;;;;;;;;6236616;23;20094;-62
2023/02/22 09:52:20;;;;;;;4.00;2.10;;;;;;;;;;6237326;23;20494;-62
2023/02/22 09:54:52;;;;;;;3.83;1.85;;;;;;;;;;6237511;23;20146;-62
2023/02/22 09:57:31;;;;;;;2.70;1.77;;;;;;;;;;6236806;23;20020;-62
2023/02/22 10:00:12;;;;;;;3.03;2.08;;;;;;;;;;6234555;23;20028;-69
2023/02/22 10:02:53;;;;;;;9.50;2.30;;;;;;;;;;6235425;23;20020;-69
2023/02/22 10:05:26;;;;;;;3.22;2.17;;;;;;;;;;6235989;23;20104;-69
2023/02/22 10:08:04;;;;;;;2.80;1.88;;;;;;;;;;6235214;23;20020;-69
2023/02/22 10:10:39;;;;;;;1.58;1.40;;;;;;;;;;6236243;23;20227;-69
2023/02/22 10:13:20;;;;;;;3.00;1.90;;;;;;;;;;6238052;23;20055;-58
2023/02/22 10:16:06;;;;;;;3.72;2.20;;;;;;;;;;6236341;23;20462;-58
2023/02/22 10:18:39;;;;;;;3.38;1.98;;;;;;;;;;6236167;23;20021;-58
2023/02/22 10:21:09;;;;;;;4.28;2.13;;;;;;;;;;6236128;23;20020;-58
2023/02/22 10:23:49;;;;;;;3.95;2.17;;;;;;;;;;6236661;23;20026;-69
2023/02/22 10:26:32;;;;;;;4.47;2.13;;;;;;;;;;6236781;23;20096;-62
2023/02/22 10:29:08;;;;;;;3.35;2.42;;;;;;;;;;6235397;23;20028;-69
2023/02/22 10:31:47;;;;;;;3.35;1.90;;;;;;;;;;6236892;23;20904;-69
2023/02/22 10:34:24;;;;;;;2.72;1.65;;;;;;;;;;6236982;23;20024;-69
2023/02/22 10:36:59;;;;;;;2.08;1.42;;;;;;;;;;6236016;23;20083;-69
2023/02/22 10:39:37;;;;;;;2.88;1.90;;;;;;;;;;6236910;23;20020;-69
2023/02/22 10:42:11;;;;;;;3.13;1.67;;;;;;;;;;6236247;23;20035;-62
2023/02/22 10:44:39;;;;;;;3.13;1.98;;;;;;;;;;6235976;23;20400;-62
2023/02/22 10:47:14;;;;;;;1.88;1.60;;;;;;;;;;6235523;23;20020;-62
2023/02/22 10:49:46;;;;;;;2.42;1.88;;;;;;;;;;6235873;23;20028;-63
2023/02/22 10:52:23;;;;;;;2.40;1.70;;;;;;;;;;6235790;23;20022;-55
2023/02/22 10:54:50;;;;;;;5.68;2.47;;;;;;;;;;6236071;23;20054;-49
2023/02/22 10:57:41;;;;;;;3.28;1.58;;;;;;;;;;6235490;23;20016;-47
2023/02/22 11:00:28;;;;;;;3.30;2.22;;;;;;;;;;6235161;23;20046;-48
2023/02/22 11:03:18;;;;;;;4.07;2.20;;;;;;;;;;6235929;23;20126;-48
2023/02/22 11:05:46;;;;;;;2.70;1.70;;;;;;;;;;6234403;23;20107;-49
2023/02/22 11:08:20;;;;;;;3.00;1.90;;;;;;;;;;6235727;23;20027;-48
2023/02/22 11:10:48;;;;;;;5.55;2.20;;;;;;;;;;6236265;23;20028;-60
2023/02/22 11:13:38;;;;;;;2.88;1.80;;;;;;;;;;6236043;23;20027;-60
2023/02/22 11:16:25;;;;;;;5.10;2.08;;;;;;;;;;6236867;23;20448;-60
2023/02/22 11:19:07;;;;;;;4.38;1.77;;;;;;;;;;6237026;23;20028;-60
2023/02/22 11:21:34;;;;;;;2.72;1.90;;;;;;;;;;6235472;23;20099;-71
2023/02/22 11:24:10;;;;;;;2.28;1.83;;;;;;;;;;6236234;23;20028;-60
2023/02/22 11:26:39;;;;;;;4.03;1.95;;;;;;;;;;6235646;23;20107;-60
2023/02/22 11:29:19;;;;;;;3.55;1.85;;;;;;;;;;6234859;23;20020;-60
2023/02/22 11:31:48;;;;;;;4.93;2.05;;;;;;;;;;6236566;23;20020;-60
2023/02/22 11:34:25;;;;;;;2.40;1.75;;;;;;;;;;6235841;23;20024;-61
2023/02/22 11:36:53;;;;;;;2.75;1.85;;;;;;;;;;6234733;23;20059;-61
2023/02/22 11:39:27;;;;;;;9.90;2.42;;;;;;;;;;6236609;23;20024;-68
2023/02/22 11:41:55;;;;;;;3.10;1.65;;;;;;;;;;6236305;23;20020;-67
2023/02/22 11:44:30;;;;;;;5.63;2.28;;;;;;;;;;6234286;23;20024;-67
2023/02/22 11:47:05;;;;;;;15.68;2.88;;;;;;;;;;6233737;23;20516;-67
2023/02/22 11:49:41;;;;;;;4.60;1.88;;;;;;;;;;6234633;23;20115;-56
2023/02/22 11:52:16;;;;;;;4.97;2.00;;;;;;;;;;6236786;23;20090;-60
2023/02/22 11:54:53;;;;;;;2.72;1.83;;;;;;;;;;6235988;23;20023;-61
2023/02/22 11:57:45;;;;;;;3.90;2.10;;;;;;;;;;6235536;23;20375;-61
2023/02/22 12:00:26;;;;;;;4.60;2.03;;;;;;;;;;6235205;23;20050;-61
2023/02/22 12:03:23;;;;;;;3.13;1.90;;;;;;;;;;6234971;23;20680;-61
2023/02/22 12:06:00;;;;;;;2.95;1.80;;;;;;;;;;6232808;23;20020;-61
2023/02/22 12:08:37;;;;;;;3.90;2.10;;;;;;;;;;6235388;23;20503;-54
2023/02/22 12:11:25;;;;;;;2.58;1.77;;;;;;;;;;6236055;23;20045;-55
2023/02/22 12:13:55;;;;;;;2.33;1.80;;;;;;;;;;6234365;23;20132;-52
2023/02/22 12:16:38;;;;;;;4.43;2.20;;;;;;;;;;6237077;23;20082;-54
2023/02/22 12:19:08;;;;;;;3.38;1.63;;;;;;;;;;6235886;23;20030;-59
2023/02/22 12:21:44;;;;;;;6.57;1.80;;;;;;;;;;6233563;23;20408;-54
2023/02/22 12:24:13;;;;;;;4.30;1.70;;;;;;;;;;6234710;23;20024;-55
2023/02/22 12:26:41;;;;;;;4.82;1.55;;;;;;;;;;6234020;23;20020;-55
2023/02/22 12:29:15;;;;;;;3.53;2.10;;;;;;;;;;6234941;23;20382;-54
2023/02/22 12:31:47;;;;;;;3.10;1.83;;;;;;;;;;6235521;23;20051;-54
2023/02/22 12:34:28;;;;;;;2.58;1.50;;;;;;;;;;6236375;23;20051;-57
2023/02/22 12:37:00;;;;;;;3.88;1.63;;;;;;;;;;6235978;23;20027;-62
2023/02/22 12:39:34;;;;;;;7.68;2.28;;;;;;;;;;6234210;23;20026;-62
2023/02/22 12:42:21;;;;;;;5.55;1.90;;;;;;;;;;6235208;23;20357;-63
2023/02/22 12:44:59;;;;;;;5.35;2.30;;;;;;;;;;6234920;23;20020;-62
2023/02/22 12:47:30;;;;;;;2.92;1.90;;;;;;;;;;6235165;23;20107;-51
2023/02/22 12:50:22;;;;;;;2.47;1.83;;;;;;;;;;6235023;23;20201;-71
2023/02/22 12:52:52;;;;;;;4.80;2.10;;;;;;;;;;6234244;23;20034;-71
2023/02/22 12:55:25;;;;;;;4.38;1.80;;;;;;;;;;6237436;23;20066;-71
2023/02/22 12:57:56;;;;;;;5.53;2.10;;;;;;;;;;6234477;23;20074;-71
2023/02/22 13:00:54;;;;;;;5.18;1.73;;;;;;;;;;6234288;23;20032;-71
2023/02/22 13:03:29;;;;;;;3.72;1.85;;;;;;;;;;6234989;23;20020;-71
2023/02/22 13:06:05;;;;;;;3.47;1.92;;;;;;;;;;6234949;23;20102;-60
2023/02/22 13:08:41;;;;;;;4.63;2.20;;;;;;;;;;6235174;23;20024;-60
2023/02/22 13:11:21;;;;;;;5.38;2.17;;;;;;;;;;6234084;23;20107;-59
2023/02/22 13:13:55;;;;;;;6.20;2.17;;;;;;;;;;6236073;23;20587;-60
2023/02/22 13:16:41;;;;;;;3.45;1.85;;;;;;;;;;6236222;23;20035;-47
2023/02/22 13:19:11;;;;;;;2.47;1.83;;;;;;;;;;6234581;23;20027;-48
2023/02/22 13:21:49;;;;;;;6.05;1.52;;;;;;;;;;6234947;23;20020;-48
2023/02/22 13:24:22;;;;;;;97.47;44.17;;;;;;;;;;6234750;23;20111;-49
2023/02/22 13:27:00;;;;;;;8.15;2.75;;;;;;;;;;6235223;23;20066;-48
2023/02/22 13:29:30;;;;;;;6.63;2.63;;;;;;;;;;6235663;23;20024;-48
2023/02/22 13:32:17;;;;;;;5.47;2.88;;;;;;;;;;6234619;23;20027;-48
2023/02/22 13:35:01;;;;;;;4.53;2.33;;;;;;;;;;6234964;23;20024;-71
2023/02/22 13:37:41;;;;;;;4.80;1.83;;;;;;;;;;6235854;23;20022;-71
2023/02/22 13:40:29;;;;;;;3.03;2.00;;;;;;;;;;6234120;23;20056;-71
2023/02/22 13:43:15;;;;;;;4.97;1.83;;;;;;;;;;6233355;23;20095;-72
2023/02/22 13:46:01;;;;;;;3.95;1.85;;;;;;;;;;6235173;23;20139;-62
2023/02/22 13:48:37;;;;;;;3.38;1.98;;;;;;;;;;6234721;23;20020;-62
2023/02/22 13:51:05;;;;;;;4.25;1.70;;;;;;;;;;6233362;23;20480;-63
2023/02/22 13:53:42;;;;;;;4.88;1.88;;;;;;;;;;6233884;23;20026;-62
2023/02/22 13:56:10;;;;;;;2.60;2.00;;;;;;;;;;6234105;23;20514;-63
2023/02/22 13:58:48;;;;;;;5.50;1.92;;;;;;;;;;6235771;23;20071;-63
2023/02/22 14:01:46;;;;;;;3.60;2.03;;;;;;;;;;6236101;23;20512;-48
2023/02/22 14:04:20;;;;;;;7.40;2.00;;;;;;;;;;6236212;23;20030;-49
2023/02/22 14:06:47;;;;;;;6.18;1.80;;;;;;;;;;6237252;23;20031;-49
2023/02/22 14:09:44;;;;;;;5.25;2.10;;;;;;;;;;6235916;23;20016;-47
2023/02/22 14:12:29;;;;;;;5.05;2.20;;;;;;;;;;6236133;23;20020;-67
2023/02/22 14:15:09;;;;;;;4.63;2.20;;;;;;;;;;6236283;23;20416;-71
2023/02/22 14:17:56;;;;;;;5.53;2.13;;;;;;;;;;6234669;23;20056;-69
2023/02/22 14:20:37;;;;;;;4.68;2.40;;;;;;;;;;6235964;23;20492;-70
2023/02/22 14:23:23;;;;;;;4.93;2.28;;;;;;;;;;6237069;23;20039;-72
2023/02/22 14:25:56;;;;;;;2.63;1.60;;;;;;;;;;6237628;23;20097;-71
2023/02/22 14:28:37;;;;;;;4.53;1.65;;;;;;;;;;6236416;23;20574;-71
2023/02/22 14:31:16;;;;;;;3.28;1.80;;;;;;;;;;6237768;23;20063;-55
2023/02/22 14:34:03;;;;;;;2.70;2.03;;;;;;;;;;6234976;23;20078;-55
2023/02/22 14:36:43;;;;;;;4.22;2.20;;;;;;;;;;6235364;23;20024;-57
2023/02/22 14:39:13;;;;;;;5.78;2.15;;;;;;;;;;6234112;23;20590;-55
2023/02/22 14:41:52;;;;;;;2.78;1.92;;;;;;;;;;6235714;23;20435;-47
2023/02/22 14:44:25;;;;;;;4.03;2.20;;;;;;;;;;6235664;23;20024;-57
2023/02/22 14:47:01;;;;;;;4.03;1.95;;;;;;;;;;6237027;23;20016;-58
2023/02/22 14:49:40;;;;;;;2.83;1.95;;;;;;;;;;6235869;23;20087;-59
2023/02/22 14:52:27;;;;;;;6.68;2.30;;;;;;;;;;6235804;23;20020;-59
2023/02/22 14:55:07;;;;;;;5.07;1.88;;;;;;;;;;6237110;23;20024;-58
2023/02/22 14:57:47;;;;;;;3.85;2.00;;;;;;;;;;6236461;23;20048;-58
2023/02/22 15:00:29;;;;;;;4.72;2.13;;;;;;;;;;6236677;23;20103;-63
2023/02/22 15:03:03;;;;;;;5.13;2.15;;;;;;;;;;6197002;23;20052;-62
2023/02/22 15:05:37;;;;;;;3.00;1.90;;;;;;;;;;6204493;23;20027;-62
2023/02/22 15:08:06;;;;;;;7.68;1.92;;;;;;;;;;6207125;23;20023;-60
2023/02/22 15:10:44;;;;;;;7.70;2.40;;;;;;;;;;6174453;23;20029;-57
2023/02/22 15:13:22;;;;;;;7.32;2.30;;;;;;;;;;6200337;23;20031;-61
2023/02/22 15:16:06;;;;;;;3.88;2.10;;;;;;;;;;6205436;23;20497;-61
2023/02/22 15:18:33;;;;;;;11.80;7.15;;;;;;;;;;6204107;23;20495;-60
2023/02/22 15:21:11;;;;;;;9.70;5.68;;;;;;;;;;6204341;23;20458;-61
2023/02/22 15:23:42;;;;;;;4.25;2.42;;;;;;;;;;6205529;23;20024;-61
2023/02/22 15:26:21;;;;;;;4.18;1.80;;;;;;;;;;6205792;23;20025;-67
2023/02/22 15:28:53;;;;;;;8.85;2.47;;;;;;;;;;6204362;23;20028;-67